createdAt,value
2023-03-15T00:03:11.763Z,0.77
2023-03-15T00:08:14.091Z,0.75
2023-03-15T00:13:17.458Z,0.65
2023-03-15T00:18:20.738Z,0.66
2023-03-15T00:23:22.627Z,0.65
2023-03-15T00:28:24.460Z,0.74
2023-03-15T00:33:27.017Z,1.03
2023-03-15T00:38:29.674Z,1.08
2023-03-15T00:43:31.284Z,1.12
2023-03-15T00:48:35.512Z,1.17
2023-03-15T00:53:39.009Z,1.30
2023-03-15T00:58:41.295Z,1.33
2023-03-15T01:03:43.530Z,1.33
2023-03-15T01:08:45.266Z,1.49
2023-03-15T01:13:47.375Z,1.55
2023-03-15T01:18:51.597Z,1.57
2023-03-15T01:23:55.141Z,1.82
2023-03-15T01:28:56.881Z,1.62
2023-03-15T01:34:01.088Z,1.62
2023-03-15T01:39:07.177Z,1.62
2023-03-15T01:44:19.692Z,1.61
2023-03-15T01:49:31.140Z,1.51
2023-03-15T01:54:39.300Z,1.61
2023-03-15T01:59:46.307Z,1.63
2023-03-15T02:04:53.347Z,1.36
2023-03-15T02:10:06.349Z,1.32
2023-03-15T02:15:14.217Z,1.25
2023-03-15T02:20:40.783Z,1.36
2023-03-15T02:26:01.618Z,1.42
2023-03-15T02:31:04.179Z,1.39
2023-03-15T02:36:32.773Z,1.38
2023-03-15T02:41:39.440Z,1.41
2023-03-15T02:46:43.991Z,1.38
2023-03-15T02:51:45.708Z,1.48
2023-03-15T02:56:47.339Z,1.49
2023-03-15T03:01:49.094Z,1.62
2023-03-15T03:06:50.835Z,1.69
2023-03-15T03:11:57.091Z,1.72
2023-03-15T03:16:59.598Z,1.79
2023-03-15T03:22:02.527Z,1.49
2023-03-15T03:27:04.985Z,1.51
2023-03-15T03:32:10.997Z,1.55
2023-03-15T03:37:13.026Z,1.40
2023-03-15T03:42:39.887Z,1.26
2023-03-15T03:47:41.861Z,1.39
2023-03-15T03:52:44.273Z,1.35
2023-03-15T03:57:53.210Z,1.47
2023-03-15T04:03:10.625Z,1.57
2023-03-15T04:08:14.748Z,1.51
2023-03-15T04:13:16.668Z,1.50
2023-03-15T04:18:18.610Z,1.38
2023-03-15T04:23:23.146Z,1.08
2023-03-15T04:28:58.420Z,1.17
2023-03-15T04:34:09.338Z,1.02
2023-03-15T04:39:29.444Z,1.08
2023-03-15T04:44:39.286Z,1.31
2023-03-15T04:50:04.125Z,1.16
2023-03-15T04:55:14.662Z,0.92
2023-03-15T05:00:31.603Z,1.05
2023-03-15T05:05:46.856Z,0.85
2023-03-15T05:11:14.868Z,0.90
2023-03-15T05:16:35.304Z,0.89
2023-03-15T05:21:48.136Z,0.76
2023-03-15T05:27:04.518Z,0.52
2023-03-15T05:32:26.940Z,0.62
2023-03-15T05:37:47.170Z,0.67
2023-03-15T05:43:06.826Z,0.75
2023-03-15T05:48:29.981Z,1.06
2023-03-15T05:53:38.988Z,1.36
2023-03-15T05:59:07.153Z,1.48
2023-03-15T06:04:27.399Z,1.48
2023-03-15T06:09:32.115Z,1.60
2023-03-15T06:14:34.041Z,1.64
2023-03-15T06:19:41.247Z,1.57
2023-03-15T06:24:42.913Z,1.57
2023-03-15T06:29:44.770Z,1.74
2023-03-15T06:34:46.837Z,1.99
2023-03-15T06:39:51.136Z,2.21
2023-03-15T06:44:52.873Z,2.18
2023-03-15T06:49:56.868Z,2.65
2023-03-15T06:54:58.931Z,2.81
2023-03-15T07:00:00.908Z,3.15
2023-03-15T07:05:02.528Z,3.49
2023-03-15T07:10:04.502Z,4.19
2023-03-15T07:15:06.507Z,4.08
2023-03-15T07:20:08.645Z,3.15
2023-03-15T07:25:10.284Z,2.89
2023-03-15T07:30:12.420Z,3.42
2023-03-15T07:35:14.593Z,4.17
2023-03-15T07:40:16.342Z,4.36
2023-03-15T07:45:20.766Z,4.45
2023-03-15T07:50:22.539Z,4.33
2023-03-15T07:55:25.383Z,4.80
2023-03-15T08:00:27.348Z,4.66
2023-03-15T08:05:29.267Z,5.24
2023-03-15T08:10:31.069Z,5.37
2023-03-15T08:15:32.767Z,5.48
2023-03-15T08:20:34.388Z,5.29
2023-03-15T08:25:40.703Z,5.75
2023-03-15T08:30:42.581Z,5.96
2023-03-15T08:35:44.592Z,5.85
2023-03-15T08:40:47.171Z,7.01
2023-03-15T08:46:00.541Z,7.23
2023-03-15T08:51:04.389Z,7.48
2023-03-15T08:56:06.046Z,7.76
2023-03-15T09:01:07.609Z,8.00
2023-03-15T09:06:10.119Z,6.86
2023-03-15T09:11:11.690Z,6.79
2023-03-15T09:16:13.792Z,6.91
2023-03-15T09:21:15.447Z,6.75
2023-03-15T09:26:17.089Z,7.15
2023-03-15T09:31:19.732Z,7.13
2023-03-15T09:36:23.743Z,7.05
2023-03-15T09:41:49.187Z,7.56
2023-03-15T09:47:06.439Z,7.21
2023-03-15T09:52:33.336Z,8.19
2023-03-15T09:57:46.808Z,8.46
2023-03-15T10:02:57.164Z,9.04
2023-03-15T10:07:58.755Z,9.28
2023-03-15T10:13:08.916Z,8.59
2023-03-15T10:18:28.097Z,9.47
2023-03-15T10:23:45.297Z,8.86
2023-03-15T10:28:48.163Z,9.97
2023-03-15T10:33:50.207Z,9.82
2023-03-15T10:38:52.536Z,10.17
2023-03-15T10:44:03.336Z,10.15
2023-03-15T10:49:17.200Z,9.71
2023-03-15T10:54:24.957Z,9.61
2023-03-15T10:59:29.550Z,8.61
2023-03-15T11:04:34.558Z,9.58
2023-03-15T11:09:53.000Z,11.00
2023-03-15T11:15:03.066Z,9.12
2023-03-15T11:20:30.895Z,10.51
2023-03-15T11:25:33.419Z,10.37
2023-03-15T11:30:36.325Z,10.83
2023-03-15T11:35:49.580Z,10.38
2023-03-15T11:40:56.737Z,10.91
2023-03-15T11:46:01.066Z,8.94
2023-03-15T11:51:17.236Z,9.88
2023-03-15T11:56:44.877Z,9.72
2023-03-15T12:01:49.660Z,11.13
2023-03-15T12:06:55.940Z,9.37
2023-03-15T12:12:02.746Z,9.68
2023-03-15T12:17:28.875Z,10.41
2023-03-15T12:22:33.957Z,10.45
2023-03-15T12:27:37.699Z,10.20
2023-03-15T12:32:49.420Z,9.41
2023-03-15T12:37:53.701Z,8.78
2023-03-15T12:42:57.456Z,8.77
2023-03-15T12:47:59.240Z,10.30
2023-03-15T12:53:05.434Z,9.74
2023-03-15T12:58:12.983Z,9.82
2023-03-15T13:03:19.028Z,9.15
2023-03-15T13:08:25.813Z,9.38
2023-03-15T13:13:45.095Z,9.44
2023-03-15T13:19:05.423Z,9.44
2023-03-15T13:24:20.096Z,9.40
2023-03-15T13:29:29.765Z,9.42
2023-03-15T13:34:34.218Z,9.71
2023-03-15T13:39:35.855Z,9.19
2023-03-15T13:44:37.497Z,9.47
2023-03-15T13:49:39.030Z,8.73
2023-03-15T13:54:44.594Z,9.71
2023-03-15T13:59:56.385Z,10.26
2023-03-15T14:05:02.713Z,10.11
2023-03-15T14:10:16.320Z,10.17
2023-03-15T14:15:26.165Z,9.01
2023-03-15T14:20:41.073Z,9.51
2023-03-15T14:25:43.871Z,8.88
2023-03-15T14:30:54.052Z,8.86
2023-03-15T14:35:59.970Z,8.86
2023-03-15T14:41:26.988Z,9.03
2023-03-15T14:46:31.269Z,9.42
2023-03-15T14:51:33.527Z,8.94
2023-03-15T14:56:37.295Z,8.60
2023-03-15T15:01:42.282Z,9.20
2023-03-15T15:06:56.182Z,8.47
2023-03-15T15:11:58.821Z,8.89
2023-03-15T15:17:00.730Z,8.36
2023-03-15T15:22:03.053Z,8.83
2023-03-15T15:27:04.881Z,8.63
2023-03-15T15:32:06.905Z,8.47
2023-03-15T15:37:11.708Z,8.73
2023-03-15T15:42:16.776Z,8.33
2023-03-15T15:47:18.954Z,8.50
2023-03-15T15:52:20.904Z,8.70
2023-03-15T15:57:26.716Z,8.34
2023-03-15T16:02:28.762Z,7.75
2023-03-15T16:07:31.109Z,7.70
2023-03-15T16:12:33.050Z,7.63
2023-03-15T16:17:34.834Z,7.55
2023-03-15T16:22:38.919Z,7.45
2023-03-15T16:27:41.146Z,7.37
2023-03-15T16:32:44.660Z,7.32
2023-03-15T16:37:46.793Z,7.08
2023-03-15T16:42:49.630Z,6.99
2023-03-15T16:47:52.029Z,6.97
2023-03-15T16:52:56.803Z,6.69
2023-03-15T16:58:00.199Z,6.60
2023-03-15T17:03:04.607Z,6.27
2023-03-15T17:08:06.324Z,5.92
2023-03-15T17:13:11.677Z,5.79
2023-03-15T17:18:17.949Z,5.88
2023-03-15T17:23:21.320Z,5.92
2023-03-15T17:28:23.387Z,5.88
2023-03-15T17:33:25.986Z,5.72
2023-03-15T17:38:32.714Z,5.55
2023-03-15T17:48:54.576Z,5.19
2023-03-15T17:53:59.564Z,5.08
2023-03-15T17:59:01.541Z,5.11
2023-03-15T18:04:03.525Z,4.96
2023-03-15T18:09:05.775Z,4.88
2023-03-15T18:14:12.933Z,4.87
2023-03-15T18:19:14.571Z,4.81
2023-03-15T18:24:16.376Z,4.73
2023-03-15T18:29:17.957Z,4.59
2023-03-15T18:34:21.975Z,4.63
2023-03-15T18:39:25.260Z,4.51
2023-03-15T18:44:26.833Z,4.50
2023-03-15T18:49:28.546Z,4.37
2023-03-15T18:54:31.525Z,4.27
2023-03-15T18:59:33.123Z,4.27
2023-03-15T19:04:34.913Z,4.28
2023-03-15T19:09:36.581Z,4.21
2023-03-15T19:14:38.552Z,4.10
2023-03-15T19:19:40.246Z,4.07
2023-03-15T19:24:41.978Z,4.15
2023-03-15T19:29:44.156Z,4.12
2023-03-15T19:34:45.805Z,4.20
2023-03-15T19:39:47.469Z,4.16
2023-03-15T19:44:49.070Z,4.12
2023-03-15T19:49:50.826Z,3.98
2023-03-15T19:54:52.853Z,3.99
2023-03-15T19:59:54.514Z,3.92
2023-03-15T20:04:56.179Z,3.93
2023-03-15T20:09:57.720Z,4.07
2023-03-15T20:14:59.311Z,4.12
2023-03-15T20:20:01.027Z,3.99
2023-03-15T20:25:02.720Z,4.01
2023-03-15T20:30:05.692Z,3.94
2023-03-15T20:35:09.498Z,3.90
2023-03-15T20:40:13.392Z,3.90
2023-03-15T20:45:14.999Z,3.89
2023-03-15T20:50:16.943Z,3.76
2023-03-15T20:55:18.667Z,3.67
2023-03-15T21:00:21.176Z,3.75
2023-03-15T21:05:24.342Z,3.67
2023-03-15T21:10:25.951Z,3.59
2023-03-15T21:15:27.488Z,3.54
2023-03-15T21:20:29.367Z,3.52
2023-03-15T21:25:32.604Z,3.42
2023-03-15T21:30:38.606Z,3.36
2023-03-15T21:35:40.701Z,3.37
2023-03-15T21:40:47.444Z,3.26
2023-03-15T21:45:49.168Z,3.28
2023-03-15T21:50:53.815Z,3.17
2023-03-15T21:55:56.968Z,3.17
2023-03-15T22:01:00.295Z,3.11
2023-03-15T22:06:02.468Z,3.08
2023-03-15T22:11:04.678Z,3.07
2023-03-15T22:16:17.850Z,2.99
2023-03-15T22:21:19.633Z,3.06
2023-03-15T22:26:22.578Z,2.95
2023-03-15T22:31:24.512Z,2.89
2023-03-15T22:36:26.254Z,2.87
2023-03-15T22:41:28.427Z,2.88
2023-03-15T22:46:34.823Z,2.82
2023-03-15T22:51:40.332Z,2.87
2023-03-15T22:56:44.529Z,2.77
2023-03-15T23:01:46.246Z,2.77
2023-03-15T23:06:47.796Z,2.76
2023-03-15T23:11:52.697Z,2.74
2023-03-15T23:16:54.300Z,2.68
2023-03-15T23:21:56.136Z,2.77
2023-03-15T23:26:57.746Z,2.80
2023-03-15T23:31:59.885Z,2.78
2023-03-15T23:37:04.257Z,2.78
2023-03-15T23:42:06.923Z,2.80
2023-03-15T23:47:08.709Z,2.76
2023-03-15T23:52:10.811Z,2.67
2023-03-15T23:57:14.299Z,2.63
